Aircraft CS-LUC Data

CS-LUC
2024 Cessna 680A Citation Latitude, c/n 680A-0414
Share Photo Links
Latest photos of CS-LUC
Aircraft CS-LUC, Rwy 01R, at ESSA, photo by wijken
wijken
@ ESSA
Aircraft CS-LUC, Netjets Europe C68A at CFU (LGKR), at LGKR, photo by João Pereira
João Pereira
@ LGKR
Recent Routes
NO LIVE DATA
Time Callsign FL Speed Heading Route
2026-09-06 16:16 UTC NJE691V 0 kt 233°
2026-09-04 14:50 UTC NJE331U 21 kt 160°
2026-09-04 12:52 UTC NJE321T 0 kt 155°
2026-09-03 20:58 UTC NJE429P FL1 108 kt 117°
2026-09-03 18:20 UTC NJE832Y FL8 111 kt 62°
2026-09-03 16:28 UTC NJE463C FL5 110 kt 238°
2026-09-03 12:20 UTC NJE045R FL1 91 kt 233°
2026-09-03 09:32 UTC NJE776P FL1 109 kt 242°
2026-09-03 06:20 UTC NJE759L 20 kt 42°
2026-09-02 15:28 UTC NJE217F FL7 104 kt 326°
2026-09-02 12:38 UTC NJE310N 12 kt 115°
2026-09-02 08:54 UTC NJE069U 10 kt 186°
2026-09-01 14:48 UTC NJE284A 13 kt 326°
2026-09-01 12:16 UTC NJE397W FL15 116 kt 49°
2026-09-01 09:54 UTC NJE661H FL5 117 kt 153°
2026-08-31 18:30 UTC NJE5UC FL1 98 kt 265°
2026-08-31 16:42 UTC NJE118C FL2 26 kt 188°
2026-08-31 13:54 UTC NJE203K FL16 233 kt 267°
2026-08-30 17:06 UTC NJE427G 14 kt 51°
2026-08-30 13:34 UTC NJE638U FL2 100 kt 344°
2026-08-30 11:36 UTC NJE852E 0 kt 332°
2026-08-30 08:08 UTC NJE082M FL125 322 kt 249°
2026-08-29 11:58 UTC NJE640M FL2 92 kt 265°
2026-08-29 06:42 UTC NJE933R FL18 295 kt 193°
2026-08-29 04:10 UTC NJE038H 0 kt 276°
2026-08-28 12:58 UTC NJE233Y FL3 95 kt 265°
2026-08-27 18:18 UTC NJE442T 3 kt 107°
2026-08-27 15:24 UTC NJE749W 0 kt 135°
2026-08-27 11:50 UTC NJE149Q 0 kt 332°
2026-08-26 11:32 UTC NJE790R FL21 101 kt 180°
2026-08-26 08:50 UTC NJE274M FL15 149 kt 58°
2026-08-26 06:12 UTC NJE741T 0 kt 276°
2026-08-24 12:32 UTC NJE520D 26 kt 87°
2026-08-24 09:10 UTC NJE649P 19 kt 146°
2026-08-24 07:10 UTC NJE237D FL11 103 kt 59°
2026-08-23 12:40 UTC NJE193T FL3 111 kt 68°
2026-08-23 09:44 UTC NJE116B 3 kt 135°
2026-08-22 15:26 UTC NJE257K 0 kt 53°
2026-08-22 11:28 UTC NJE534D 2 kt 276°
2026-08-21 18:00 UTC NJE597H FL10 120 kt 225°
2026-08-21 13:12 UTC NJE071A 3 kt 135°
2026-08-20 20:28 UTC NJE349F FL7 113 kt 238°
2026-08-20 16:30 UTC NJE330Q 12 kt 45°
2026-08-20 13:22 UTC NJE547M FL25 189 kt 269°
2026-08-20 09:50 UTC NJE584P 0 kt 349°
2026-08-19 13:22 UTC NJE311E 0 kt 231°
2026-08-18 18:22 UTC NJE942U 18 kt 197°
2026-08-18 15:08 UTC NJE785Y 0 kt 264°
2026-08-17 20:02 UTC NJE178F 6 kt 242°
2026-08-17 17:14 UTC NJE456W 7 kt
2026-08-17 15:38 UTC NJU983G 14 kt 48°
2026-08-17 13:10 UTC NJE626K FL13 0 kt 276°
2026-08-16 18:40 UTC NJE412E 3 kt 45°
2026-08-16 15:14 UTC NJE853H 17 kt 222°
2026-08-16 08:52 UTC NJE509P 22 kt 293°
2026-08-16 05:58 UTC NJE896D FL209 427 kt 164°
2026-08-15 15:12 UTC NJE099D FL101 280 kt 14°
2026-08-15 12:56 UTC NJE939W FL21 192 kt 278°
2026-08-15 10:48 UTC NJE209L 0 kt 172°
2026-08-15 08:26 UTC NJE890F FL6 112 kt 52°
2026-08-15 06:24 UTC NJE743G 0 kt 332°

Live location data from OpenSky Network

Airframe Info
Manufacturer Cessna
Model 680A Citation Latitude Search all Cessna 680A Citation Latitude
Year built 2024
Construction Number (C/N) 680A-0414
Aircraft Type Fixed wing multi engine
Number of Seats 9
Number of Engines 2
Engine Type Turbofan
Engine Manufacturer and Model P&W Canada PW306D
Aircraft
Registration Number CS-LUC
Mode S (ICAO24) Code 4932A3
Current Status Active
Owner
Owner Netjets Europe
Address ,
Portugal